sensor_id;sensor_type;location;lat;lon;timestamp;temperature;humidity
22562;DHT22;11447;50.562;8.504;2023-04-01T00:01:27;11.10;77.40
22562;DHT22;11447;50.562;8.504;2023-04-01T00:03:56;11.10;77.40
22562;DHT22;11447;50.562;8.504;2023-04-01T00:06:28;11.00;77.40
22562;DHT22;11447;50.562;8.504;2023-04-01T00:08:55;11.10;77.40
22562;DHT22;11447;50.562;8.504;2023-04-01T00:11:21;11.10;77.40
22562;DHT22;11447;50.562;8.504;2023-04-01T00:13:51;11.00;77.40
22562;DHT22;11447;50.562;8.504;2023-04-01T00:16:17;10.90;77.40
22562;DHT22;11447;50.562;8.504;2023-04-01T00:18:48;10.90;77.40
22562;DHT22;11447;50.562;8.504;2023-04-01T00:21:15;11.00;77.40
22562;DHT22;11447;50.562;8.504;2023-04-01T00:23:44;10.90;77.40
22562;DHT22;11447;50.562;8.504;2023-04-01T00:26:11;10.90;77.40
22562;DHT22;11447;50.562;8.504;2023-04-01T00:28:39;10.80;77.40
22562;DHT22;11447;50.562;8.504;2023-04-01T00:31:06;10.80;77.40
22562;DHT22;11447;50.562;8.504;2023-04-01T00:33:33;10.90;77.40
22562;DHT22;11447;50.562;8.504;2023-04-01T00:36:06;10.90;77.40
22562;DHT22;11447;50.562;8.504;2023-04-01T00:38:32;10.90;77.40
22562;DHT22;11447;50.562;8.504;2023-04-01T00:40:59;10.90;77.40
22562;DHT22;11447;50.562;8.504;2023-04-01T00:43:28;10.90;77.40
22562;DHT22;11447;50.562;8.504;2023-04-01T00:45:57;10.90;77.40
22562;DHT22;11447;50.562;8.504;2023-04-01T00:48:27;10.80;77.40
22562;DHT22;11447;50.562;8.504;2023-04-01T00:50:56;10.80;77.40
22562;DHT22;11447;50.562;8.504;2023-04-01T00:53:24;10.80;77.40
22562;DHT22;11447;50.562;8.504;2023-04-01T00:55:54;10.70;77.40
22562;DHT22;11447;50.562;8.504;2023-04-01T00:58:23;10.80;77.40
22562;DHT22;11447;50.562;8.504;2023-04-01T01:00:50;11.00;77.40
22562;DHT22;11447;50.562;8.504;2023-04-01T01:03:17;10.70;77.40
22562;DHT22;11447;50.562;8.504;2023-04-01T01:05:55;10.70;77.40
22562;DHT22;11447;50.562;8.504;2023-04-01T01:10:58;10.90;77.40
22562;DHT22;11447;50.562;8.504;2023-04-01T01:16:27;10.60;77.40
22562;DHT22;11447;50.562;8.504;2023-04-01T01:26:57;10.70;77.40
22562;DHT22;11447;50.562;8.504;2023-04-01T01:37:27;10.40;77.40
22562;DHT22;11447;50.562;8.504;2023-04-01T01:39:59;10.60;77.40
22562;DHT22;11447;50.562;8.504;2023-04-01T01:42:27;10.30;77.40
22562;DHT22;11447;50.562;8.504;2023-04-01T01:44:55;10.50;77.40
22562;DHT22;11447;50.562;8.504;2023-04-01T01:47:23;10.50;77.40
22562;DHT22;11447;50.562;8.504;2023-04-01T01:49:53;10.50;77.40
22562;DHT22;11447;50.562;8.504;2023-04-01T01:52:23;10.30;77.40
22562;DHT22;11447;50.562;8.504;2023-04-01T01:54:53;10.50;77.40
22562;DHT22;11447;50.562;8.504;2023-04-01T01:57:22;10.40;77.40
22562;DHT22;11447;50.562;8.504;2023-04-01T01:59:50;10.50;77.40
22562;DHT22;11447;50.562;8.504;2023-04-01T02:02:19;10.40;77.40
22562;DHT22;11447;50.562;8.504;2023-04-01T02:04:47;10.50;77.40
22562;DHT22;11447;50.562;8.504;2023-04-01T02:07:16;10.20;77.40
22562;DHT22;11447;50.562;8.504;2023-04-01T02:09:47;10.40;77.40
22562;DHT22;11447;50.562;8.504;2023-04-01T02:12:14;10.30;77.40
22562;DHT22;11447;50.562;8.504;2023-04-01T02:14:44;10.40;77.40
22562;DHT22;11447;50.562;8.504;2023-04-01T02:17:15;10.40;77.40
22562;DHT22;11447;50.562;8.504;2023-04-01T02:19:53;10.40;77.40
22562;DHT22;11447;50.562;8.504;2023-04-01T02:22:26;10.40;77.40
22562;DHT22;11447;50.562;8.504;2023-04-01T02:24:55;10.30;77.40
22562;DHT22;11447;50.562;8.504;2023-04-01T02:27:23;10.30;77.40
22562;DHT22;11447;50.562;8.504;2023-04-01T02:29:50;10.30;77.40
22562;DHT22;11447;50.562;8.504;2023-04-01T02:32:18;10.30;77.40
22562;DHT22;11447;50.562;8.504;2023-04-01T02:34:46;10.20;77.40
22562;DHT22;11447;50.562;8.504;2023-04-01T02:37:13;10.20;77.40
22562;DHT22;11447;50.562;8.504;2023-04-01T02:39:40;10.30;77.40
22562;DHT22;11447;50.562;8.504;2023-04-01T02:42:09;10.30;77.40
22562;DHT22;11447;50.562;8.504;2023-04-01T02:44:37;10.40;77.40
22562;DHT22;11447;50.562;8.504;2023-04-01T02:47:04;10.40;77.40
22562;DHT22;11447;50.562;8.504;2023-04-01T02:49:31;10.30;77.40
22562;DHT22;11447;50.562;8.504;2023-04-01T02:51:57;10.30;77.40
22562;DHT22;11447;50.562;8.504;2023-04-01T02:54:24;10.30;77.40
22562;DHT22;11447;50.562;8.504;2023-04-01T02:56:50;10.30;77.40
22562;DHT22;11447;50.562;8.504;2023-04-01T02:59:17;10.20;77.40
22562;DHT22;11447;50.562;8.504;2023-04-01T03:01:44;10.20;77.40
22562;DHT22;11447;50.562;8.504;2023-04-01T03:04:11;10.20;77.40
22562;DHT22;11447;50.562;8.504;2023-04-01T03:06:37;10.20;77.40
22562;DHT22;11447;50.562;8.504;2023-04-01T03:09:04;10.20;77.40
22562;DHT22;11447;50.562;8.504;2023-04-01T03:11:31;10.20;77.40
22562;DHT22;11447;50.562;8.504;2023-04-01T03:13:57;10.30;77.40
22562;DHT22;11447;50.562;8.504;2023-04-01T03:16:24;10.20;77.40
22562;DHT22;11447;50.562;8.504;2023-04-01T03:18:51;10.10;77.40
22562;DHT22;11447;50.562;8.504;2023-04-01T03:21:20;10.20;77.40
22562;DHT22;11447;50.562;8.504;2023-04-01T03:23:46;10.20;77.40
22562;DHT22;11447;50.562;8.504;2023-04-01T03:26:16;10.20;77.40
22562;DHT22;11447;50.562;8.504;2023-04-01T03:28:42;10.10;77.40
22562;DHT22;11447;50.562;8.504;2023-04-01T03:31:09;10.10;77.40
22562;DHT22;11447;50.562;8.504;2023-04-01T03:33:36;10.10;77.40
22562;DHT22;11447;50.562;8.504;2023-04-01T03:36:03;10.10;77.40
22562;DHT22;11447;50.562;8.504;2023-04-01T03:38:35;10.10;77.40
22562;DHT22;11447;50.562;8.504;2023-04-01T03:41:02;10.20;77.40
22562;DHT22;11447;50.562;8.504;2023-04-01T03:43:29;10.20;77.40
22562;DHT22;11447;50.562;8.504;2023-04-01T03:45:55;10.00;77.40
22562;DHT22;11447;50.562;8.504;2023-04-01T03:48:24;10.20;77.40
22562;DHT22;11447;50.562;8.504;2023-04-01T03:50:51;10.00;77.40
22562;DHT22;11447;50.562;8.504;2023-04-01T03:53:18;10.10;77.40
22562;DHT22;11447;50.562;8.504;2023-04-01T03:55:45;10.10;77.40
22562;DHT22;11447;50.562;8.504;2023-04-01T03:58:11;10.10;77.40
22562;DHT22;11447;50.562;8.504;2023-04-01T04:00:38;10.10;77.40
22562;DHT22;11447;50.562;8.504;2023-04-01T04:03:06;10.10;77.40
22562;DHT22;11447;50.562;8.504;2023-04-01T04:05:33;10.10;77.40
22562;DHT22;11447;50.562;8.504;2023-04-01T04:08:01;10.10;77.40
22562;DHT22;11447;50.562;8.504;2023-04-01T04:10:27;10.10;77.40
22562;DHT22;11447;50.562;8.504;2023-04-01T04:12:55;10.10;77.40
22562;DHT22;11447;50.562;8.504;2023-04-01T04:15:22;10.10;77.40
22562;DHT22;11447;50.562;8.504;2023-04-01T04:17:49;10.10;77.40
22562;DHT22;11447;50.562;8.504;2023-04-01T04:20:15;10.00;77.40
22562;DHT22;11447;50.562;8.504;2023-04-01T04:22:42;10.00;77.40
22562;DHT22;11447;50.562;8.504;2023-04-01T04:25:09;10.00;77.40
22562;DHT22;11447;50.562;8.504;2023-04-01T04:27:35;10.00;77.40
22562;DHT22;11447;50.562;8.504;2023-04-01T04:30:02;9.90;77.40
22562;DHT22;11447;50.562;8.504;2023-04-01T04:32:31;10.00;77.40
22562;DHT22;11447;50.562;8.504;2023-04-01T04:34:58;10.00;77.40
22562;DHT22;11447;50.562;8.504;2023-04-01T04:37:25;9.90;77.40
22562;DHT22;11447;50.562;8.504;2023-04-01T04:39:52;9.90;77.40
22562;DHT22;11447;50.562;8.504;2023-04-01T04:42:18;10.00;77.40
22562;DHT22;11447;50.562;8.504;2023-04-01T04:44:47;10.00;77.40
22562;DHT22;11447;50.562;8.504;2023-04-01T04:47:14;9.90;77.40
22562;DHT22;11447;50.562;8.504;2023-04-01T04:49:40;9.90;77.40
22562;DHT22;11447;50.562;8.504;2023-04-01T04:52:07;9.90;77.40
22562;DHT22;11447;50.562;8.504;2023-04-01T04:54:34;10.00;77.40
22562;DHT22;11447;50.562;8.504;2023-04-01T04:57:00;10.00;77.40
22562;DHT22;11447;50.562;8.504;2023-04-01T04:59:30;9.90;77.40
22562;DHT22;11447;50.562;8.504;2023-04-01T05:01:56;9.90;77.40
22562;DHT22;11447;50.562;8.504;2023-04-01T05:04:23;9.90;77.40
22562;DHT22;11447;50.562;8.504;2023-04-01T05:06:50;9.90;77.40
22562;DHT22;11447;50.562;8.504;2023-04-01T05:09:19;9.90;77.40
22562;DHT22;11447;50.562;8.504;2023-04-01T05:11:46;9.90;77.40
22562;DHT22;11447;50.562;8.504;2023-04-01T05:14:13;9.90;77.40
22562;DHT22;11447;50.562;8.504;2023-04-01T05:16:39;9.90;77.40
22562;DHT22;11447;50.562;8.504;2023-04-01T05:19:06;9.90;77.40
22562;DHT22;11447;50.562;8.504;2023-04-01T05:21:33;9.90;77.40
22562;DHT22;11447;50.562;8.504;2023-04-01T05:23:59;9.90;77.40
22562;DHT22;11447;50.562;8.504;2023-04-01T05:26:26;9.90;77.40
22562;DHT22;11447;50.562;8.504;2023-04-01T05:28:52;9.80;77.40
22562;DHT22;11447;50.562;8.504;2023-04-01T05:31:19;9.90;77.40
22562;DHT22;11447;50.562;8.504;2023-04-01T05:33:46;9.90;77.40
22562;DHT22;11447;50.562;8.504;2023-04-01T05:36:13;9.80;77.40
22562;DHT22;11447;50.562;8.504;2023-04-01T05:38:41;9.80;77.40
22562;DHT22;11447;50.562;8.504;2023-04-01T05:41:08;9.80;77.40
22562;DHT22;11447;50.562;8.504;2023-04-01T05:43:36;9.80;77.40
22562;DHT22;11447;50.562;8.504;2023-04-01T05:46:03;9.80;77.40
22562;DHT22;11447;50.562;8.504;2023-04-01T05:48:32;9.90;77.40
22562;DHT22;11447;50.562;8.504;2023-04-01T05:50:59;9.80;77.40
22562;DHT22;11447;50.562;8.504;2023-04-01T05:53:26;9.80;77.40
22562;DHT22;11447;50.562;8.504;2023-04-01T05:55:55;9.80;77.40
22562;DHT22;11447;50.562;8.504;2023-04-01T05:58:21;9.80;77.40
22562;DHT22;11447;50.562;8.504;2023-04-01T06:00:48;9.80;77.40
22562;DHT22;11447;50.562;8.504;2023-04-01T06:03:31;9.90;77.40
22562;DHT22;11447;50.562;8.504;2023-04-01T06:06:03;9.80;77.40
22562;DHT22;11447;50.562;8.504;2023-04-01T06:08:31;9.90;77.40
22562;DHT22;11447;50.562;8.504;2023-04-01T06:11:05;9.90;77.40
22562;DHT22;11447;50.562;8.504;2023-04-01T06:18:58;10.00;77.40
22562;DHT22;11447;50.562;8.504;2023-04-01T06:24:40;9.90;77.40
22562;DHT22;11447;50.562;8.504;2023-04-01T06:29:57;10.00;77.40
22562;DHT22;11447;50.562;8.504;2023-04-01T06:47:55;10.00;77.40
22562;DHT22;11447;50.562;8.504;2023-04-01T06:55:46;10.00;77.40
22562;DHT22;11447;50.562;8.504;2023-04-01T06:58:20;10.00;77.40
22562;DHT22;11447;50.562;8.504;2023-04-01T07:00:49;10.00;77.40
22562;DHT22;11447;50.562;8.504;2023-04-01T07:03:30;10.00;77.40
22562;DHT22;11447;50.562;8.504;2023-04-01T07:06:01;10.10;77.40
22562;DHT22;11447;50.562;8.504;2023-04-01T07:08:29;10.30;77.40
22562;DHT22;11447;50.562;8.504;2023-04-01T07:13:26;10.20;77.40
22562;DHT22;11447;50.562;8.504;2023-04-01T07:15:56;10.20;77.40
22562;DHT22;11447;50.562;8.504;2023-04-01T07:18:30;10.30;77.40
22562;DHT22;11447;50.562;8.504;2023-04-01T07:20:58;10.30;77.40
22562;DHT22;11447;50.562;8.504;2023-04-01T07:23:32;10.40;77.40
22562;DHT22;11447;50.562;8.504;2023-04-01T07:26:16;10.40;77.40
22562;DHT22;11447;50.562;8.504;2023-04-01T07:28:43;10.50;77.40
22562;DHT22;11447;50.562;8.504;2023-04-01T07:33:39;10.60;77.40
22562;DHT22;11447;50.562;8.504;2023-04-01T07:36:12;10.70;77.40
22562;DHT22;11447;50.562;8.504;2023-04-01T07:43:48;10.70;77.40
22562;DHT22;11447;50.562;8.504;2023-04-01T07:48:54;10.80;77.40
22562;DHT22;11447;50.562;8.504;2023-04-01T07:51:32;10.70;77.40
22562;DHT22;11447;50.562;8.504;2023-04-01T08:07:07;11.10;77.40
22562;DHT22;11447;50.562;8.504;2023-04-01T08:13:04;11.00;77.40
22562;DHT22;11447;50.562;8.504;2023-04-01T08:18:06;11.10;77.40
22562;DHT22;11447;50.562;8.504;2023-04-01T08:20:41;11.20;77.40
22562;DHT22;11447;50.562;8.504;2023-04-01T08:23:21;11.30;77.40
22562;DHT22;11447;50.562;8.504;2023-04-01T08:25:53;11.20;77.40
22562;DHT22;11447;50.562;8.504;2023-04-01T08:28:27;11.20;77.40
22562;DHT22;11447;50.562;8.504;2023-04-01T08:31:16;11.20;77.40
22562;DHT22;11447;50.562;8.504;2023-04-01T08:33:44;11.30;77.40
22562;DHT22;11447;50.562;8.504;2023-04-01T08:36:14;11.30;77.40
22562;DHT22;11447;50.562;8.504;2023-04-01T08:43:44;11.30;77.40
22562;DHT22;11447;50.562;8.504;2023-04-01T08:49:04;11.40;77.40
22562;DHT22;11447;50.562;8.504;2023-04-01T08:51:43;11.40;77.40
22562;DHT22;11447;50.562;8.504;2023-04-01T08:54:18;11.40;77.40
22562;DHT22;11447;50.562;8.504;2023-04-01T09:10:15;11.70;77.40
22562;DHT22;11447;50.562;8.504;2023-04-01T09:16:32;11.80;77.40
22562;DHT22;11447;50.562;8.504;2023-04-01T09:18:33;11.80;77.40
22562;DHT22;11447;50.562;8.504;2023-04-01T09:39:36;11.70;77.40
22562;DHT22;11447;50.562;8.504;2023-04-01T09:44:44;11.70;77.40
22562;DHT22;11447;50.562;8.504;2023-04-01T10:14:08;11.80;77.40
22562;DHT22;11447;50.562;8.504;2023-04-01T10:22:25;12.00;77.40
22562;DHT22;11447;50.562;8.504;2023-04-01T10:54:04;12.10;77.40
22562;DHT22;11447;50.562;8.504;2023-04-01T11:20:56;12.20;77.40
22562;DHT22;11447;50.562;8.504;2023-04-01T11:26:08;12.40;77.40
22562;DHT22;11447;50.562;8.504;2023-04-01T11:28:39;12.30;77.40
22562;DHT22;11447;50.562;8.504;2023-04-01T11:31:55;12.40;77.40
22562;DHT22;11447;50.562;8.504;2023-04-01T11:44:29;12.30;77.40
22562;DHT22;11447;50.562;8.504;2023-04-01T11:49:39;12.30;77.40
22562;DHT22;11447;50.562;8.504;2023-04-01T11:52:16;12.30;77.40
22562;DHT22;11447;50.562;8.504;2023-04-01T12:13:13;12.40;77.40
22562;DHT22;11447;50.562;8.504;2023-04-01T12:18:25;12.40;77.40
22562;DHT22;11447;50.562;8.504;2023-04-01T12:20:57;12.40;77.40
22562;DHT22;11447;50.562;8.504;2023-04-01T12:30:54;12.50;77.40
22562;DHT22;11447;50.562;8.504;2023-04-01T12:33:36;12.60;77.40
22562;DHT22;11447;50.562;8.504;2023-04-01T12:38:51;12.60;77.40
22562;DHT22;11447;50.562;8.504;2023-04-01T21:39:42;11.10;77.40
22562;DHT22;11447;50.562;8.504;2023-04-01T21:50:24;11.40;77.40
22562;DHT22;11447;50.562;8.504;2023-04-01T21:53:35;11.40;77.40
22562;DHT22;11447;50.562;8.504;2023-04-01T22:06:40;11.40;77.40
22562;DHT22;11447;50.562;8.504;2023-04-01T22:09:31;11.40;77.40
22562;DHT22;11447;50.562;8.504;2023-04-01T22:17:09;11.30;77.40
22562;DHT22;11447;50.562;8.504;2023-04-01T22:19:42;11.40;77.40
22562;DHT22;11447;50.562;8.504;2023-04-01T22:22:24;11.40;77.40
22562;DHT22;11447;50.562;8.504;2023-04-01T22:25:03;11.30;77.40
22562;DHT22;11447;50.562;8.504;2023-04-01T22:27:38;11.30;77.40
22562;DHT22;11447;50.562;8.504;2023-04-01T22:30:19;11.30;77.40
22562;DHT22;11447;50.562;8.504;2023-04-01T22:32:56;11.30;77.40
22562;DHT22;11447;50.562;8.504;2023-04-01T22:38:15;11.30;77.40
22562;DHT22;11447;50.562;8.504;2023-04-01T22:43:41;11.10;77.40
22562;DHT22;11447;50.562;8.504;2023-04-01T22:51:25;11.20;77.40
22562;DHT22;11447;50.562;8.504;2023-04-01T22:56:30;11.20;77.40
22562;DHT22;11447;50.562;8.504;2023-04-01T22:59:13;11.10;77.40
22562;DHT22;11447;50.562;8.504;2023-04-01T23:01:43;11.00;77.40
22562;DHT22;11447;50.562;8.504;2023-04-01T23:04:15;11.10;77.40
22562;DHT22;11447;50.562;8.504;2023-04-01T23:06:48;11.00;77.40
22562;DHT22;11447;50.562;8.504;2023-04-01T23:11:50;11.20;77.40
22562;DHT22;11447;50.562;8.504;2023-04-01T23:16:49;11.20;77.40
22562;DHT22;11447;50.562;8.504;2023-04-01T23:19:21;11.00;77.40
22562;DHT22;11447;50.562;8.504;2023-04-01T23:21:51;11.00;77.40
22562;DHT22;11447;50.562;8.504;2023-04-01T23:24:28;11.10;77.40
22562;DHT22;11447;50.562;8.504;2023-04-01T23:27:08;11.00;77.40
22562;DHT22;11447;50.562;8.504;2023-04-01T23:29:37;11.00;77.40
22562;DHT22;11447;50.562;8.504;2023-04-01T23:32:18;11.10;77.40
22562;DHT22;11447;50.562;8.504;2023-04-01T23:34:46;11.00;77.40
22562;DHT22;11447;50.562;8.504;2023-04-01T23:37:13;10.90;77.40
22562;DHT22;11447;50.562;8.504;2023-04-01T23:39:43;10.90;77.40
22562;DHT22;11447;50.562;8.504;2023-04-01T23:42:15;10.80;77.40
22562;DHT22;11447;50.562;8.504;2023-04-01T23:44:43;11.00;77.40
22562;DHT22;11447;50.562;8.504;2023-04-01T23:47:12;10.90;77.40
22562;DHT22;11447;50.562;8.504;2023-04-01T23:49:41;11.00;77.40
22562;DHT22;11447;50.562;8.504;2023-04-01T23:54:43;11.00;77.40
22562;DHT22;11447;50.562;8.504;2023-04-01T23:57:12;11.00;77.40
22562;DHT22;11447;50.562;8.504;2023-04-01T23:59:38;10.90;77.40
